Ellsworth, WI (54003)

5:56 AM CDT on March 29, 2015 (GMT -0500)
KWIBELDE2 | | Change Station
CLOSE
Current Station
Personal Weather Station
Location: Beldenville, WI
Elevation: 1053 ft
Nearby Weather Stations

Elev 1053 ft 44.79 °N, 92.46 °W | Updated 15 minutes ago

Ice Pellets
Ice Pellets
32.7 °F
Feels Like 27 °F
N
6.0
Wind Variable Wind from ESE
Gusts 15.0 mph

Today
High -- | Low -- °F
--% Chance of Precip.
Yesterday
High -- | Low -- °F
Precip. -- in
6:56 AM 7:33 PM
Waxing Gibbous, 70% visible
Pressure 29.79 in
Visibility 3.0 miles
Clouds Mostly Cloudy 5000 ft
Overcast 6000 ft
Windchill 27 °F
Dew Point 29 °F
Humidity 87%
Rainfall 0.10 in
Snow Depth Not available.
UV 0 out of 12
Pollen 1.80 out of 12
Air Quality Not available.
Flu Activity Not available.
METAR KRGK 291031Z AUTO 15006KT 3SM UP BKN050 OVC060 01/M03 A2979 RMK AO2 P0006

More Conditions Fewer Conditions

Pressure 29.79 in
Visibility 3.0 miles
Clouds Mostly Cloudy 5000 ft
Overcast 6000 ft
Windchill 27 °F
Dew Point 29 °F
Humidity 87%
Rainfall 0.10 in
Snow Depth Not available.
UV 0 out of 12
Pollen 1.80 out of 12
Air Quality Not available.
Flu Activity Not available.
METAR KRGK 291031Z AUTO 15006KT 3SM UP BKN050 OVC060 01/M03 A2979 RMK AO2 P0006

More Conditions Fewer Conditions

10-Day Weather Forecast

Almanac

Astronomy

Mar. 29, 2015 Rise Set
Actual Time
Civil Twilight
Nautical Twilight
Astronomical Twilight
Moon
Length of Visible Light
Length of Day
Tomorrow will be .
, % of the Moon is Illuminated

Today's Extremes

State Highs State Lows

Community

WunderPhotos

Upload Photos

1,809,214 photos uploaded!

WunderBlogs® & News

Nearby

Air Quality

  Air Quality AQ Index Pollutant
Not available.

Snow Depth

Station Depth Elevation

Earthquake Activity

City Distance Mag. Time & Date
Minimum magnitude displayed is 2.5.

Coastal Water Temperatures

Place Temperature

Stations

Nearby Weather Stations

Station Location Temp. Windchill Dew Point Humidity Wind Precip. Elev Updated Type